Time;durP1;ratioP1;P1;durP2;ratioP2;P2;SDS_P1;SDS_P2;PMS_P1;PMS_P2;Temp;Humidity;BMP_temperature;BMP_pressure;BME280_temperature;BME280_humidity;BME280_pressure;Samples;Min_cycle;Max_cycle;Signal;HPM_P1;HPM_P2
2021/09/30 00:00:04;;;;;;;3.60;0.90;;;9.80;99.90;;;;;;1913560;73;21073;-75
2021/09/30 00:02:28;;;;;;;4.40;0.70;;;9.80;99.90;;;;;;1914023;73;21221;-76
2021/09/30 00:04:54;;;;;;;3.35;0.80;;;9.80;99.90;;;;;;1916532;73;21553;-75
2021/09/30 00:07:21;;;;;;;17.57;1.25;;;9.80;99.90;;;;;;1910275;73;21476;-76
2021/09/30 00:09:48;;;;;;;4.72;0.60;;;9.90;99.90;;;;;;1909653;73;21453;-76
2021/09/30 00:12:17;;;;;;;2.47;0.72;;;9.90;99.90;;;;;;1917764;73;21092;-76
2021/09/30 00:33:25;;;;;;;1.55;0.80;;;9.80;99.90;;;;;;1920873;73;21072;-76
2021/09/30 00:52:02;;;;;;;2.55;1.25;;;9.20;99.90;;;;;;1790338;77;21587;-75
2021/09/30 01:18:56;;;;;;;3.92;1.70;;;8.80;99.90;;;;;;1920542;73;21073;-76
2021/09/30 01:21:55;;;;;;;2.15;0.90;;;8.80;99.90;;;;;;1907636;73;21453;-75
2021/09/30 01:27:53;;;;;;;7.72;0.90;;;8.90;99.90;;;;;;1914660;73;21072;-75
2021/09/30 01:57:51;;;;;;;3.77;0.90;;;9.00;99.90;;;;;;1918906;73;21080;-75
2021/09/30 01:58:40;;;;;;;3.10;0.70;;;8.70;99.90;;;;;;1861758;74;21088;-75
2021/09/30 02:30:44;;;;;;;3.15;0.88;;;8.10;99.90;;;;;;1917282;73;21202;-75
2021/09/30 03:00:14;;;;;;;2.42;1.00;;;7.70;99.90;;;;;;1919774;73;21186;-75
2021/09/30 03:02:42;;;;;;;5.62;1.27;;;7.80;99.90;;;;;;1913530;73;21083;-74
2021/09/30 03:05:08;;;;;;;3.87;1.25;;;7.70;99.90;;;;;;1918452;73;21149;-74
2021/09/30 03:07:34;;;;;;;2.77;1.55;;;7.70;99.90;;;;;;1908302;73;21088;-74
2021/09/30 03:10:02;;;;;;;3.92;1.30;;;7.70;99.90;;;;;;1907658;73;21045;-74
2021/09/30 03:12:29;;;;;;;3.52;1.00;;;7.70;99.90;;;;;;1920245;73;21113;-74
2021/09/30 03:17:51;;;;;;;2.35;1.27;;;7.70;99.90;;;;;;1914722;73;21152;-75
2021/09/30 03:20:29;;;;;;;3.58;1.30;;;7.60;99.90;;;;;;1913046;73;21149;-75
2021/09/30 03:22:44;;;;;;;1.95;0.90;;;7.60;99.90;;;;;;1915384;73;21430;-76
2021/09/30 03:25:10;;;;;;;2.12;1.30;;;7.50;99.90;;;;;;1921504;73;21566;-75
2021/09/30 03:27:37;;;;;;;1.87;0.88;;;7.50;99.90;;;;;;1918886;73;21492;-75
2021/09/30 03:30:03;;;;;;;2.35;1.10;;;7.50;99.90;;;;;;1911070;73;21087;-76
2021/09/30 03:32:29;;;;;;;7.40;0.98;;;7.50;99.90;;;;;;1911187;73;21200;-75
2021/09/30 03:34:55;;;;;;;6.90;1.15;;;7.50;99.90;;;;;;1906898;73;21141;-75
2021/09/30 03:37:21;;;;;;;2.27;1.00;;;7.40;99.90;;;;;;1917775;73;21053;-75
2021/09/30 03:39:47;;;;;;;2.20;1.10;;;7.30;99.90;;;;;;1915722;73;21083;-75
2021/09/30 03:42:13;;;;;;;3.77;1.50;;;7.40;99.90;;;;;;1918461;73;21145;-75
2021/09/30 03:44:39;;;;;;;1.05;0.82;;;7.40;99.90;;;;;;1920256;73;21152;-75
2021/09/30 03:47:06;;;;;;;2.15;0.88;;;7.40;99.90;;;;;;1915986;73;21096;-75
2021/09/30 03:49:34;;;;;;;5.28;0.98;;;7.30;99.90;;;;;;1916882;73;21210;-75
2021/09/30 03:54:35;;;;;;;4.35;1.20;;;7.20;99.90;;;;;;1923954;73;21322;-75
2021/09/30 03:59:26;;;;;;;2.25;1.12;;;7.30;99.90;;;;;;1919930;73;21141;-75
2021/09/30 04:01:56;;;;;;;5.03;1.02;;;7.40;99.90;;;;;;1904906;73;21053;-75
2021/09/30 04:04:20;;;;;;;1.80;0.90;;;7.40;99.90;;;;;;1921091;73;21519;-76
2021/09/30 04:06:46;;;;;;;3.42;0.90;;;7.30;99.90;;;;;;1915403;74;21084;-75
2021/09/30 04:09:12;;;;;;;1.92;0.98;;;7.20;99.90;;;;;;1919155;73;21130;-75
2021/09/30 04:11:40;;;;;;;0.93;0.70;;;7.30;99.90;;;;;;1915975;73;21083;-75
2021/09/30 04:14:06;;;;;;;1.75;1.07;;;7.30;99.90;;;;;;1911751;73;21623;-75
2021/09/30 04:16:32;;;;;;;2.25;1.10;;;7.30;99.90;;;;;;1913353;74;21496;-75
2021/09/30 04:18:58;;;;;;;0.70;0.70;;;7.30;99.90;;;;;;1915591;73;21596;-75
2021/09/30 04:21:24;;;;;;;1.70;0.88;;;7.20;99.90;;;;;;1915590;73;21260;-75
2021/09/30 04:23:50;;;;;;;3.60;1.05;;;7.20;99.90;;;;;;1913904;73;21083;-76
2021/09/30 04:26:16;;;;;;;0.93;0.80;;;7.10;99.90;;;;;;1921040;74;21091;-75
2021/09/30 04:28:43;;;;;;;2.87;1.00;;;7.00;99.90;;;;;;1916973;73;21040;-75
2021/09/30 04:31:09;;;;;;;5.10;0.82;;;7.00;99.90;;;;;;1922135;73;21079;-75
2021/09/30 04:33:35;;;;;;;1.85;1.00;;;7.10;99.90;;;;;;1908437;73;21080;-75
2021/09/30 04:36:01;;;;;;;3.58;1.10;;;7.00;99.90;;;;;;1923614;73;21144;-75
2021/09/30 04:38:27;;;;;;;1.85;0.85;;;7.00;99.90;;;;;;1905107;74;21083;-75
2021/09/30 04:40:53;;;;;;;3.27;1.12;;;6.90;99.90;;;;;;1915377;73;21048;-75
2021/09/30 04:43:19;;;;;;;3.83;1.12;;;6.80;99.90;;;;;;1926028;73;21083;-75
2021/09/30 04:45:45;;;;;;;5.60;2.08;;;6.70;99.90;;;;;;1919769;73;21087;-75
2021/09/30 04:48:13;;;;;;;2.33;1.27;;;6.70;99.90;;;;;;1914917;73;21107;-75
2021/09/30 04:50:39;;;;;;;2.20;1.22;;;6.60;99.90;;;;;;1909483;73;21107;-75
2021/09/30 04:53:05;;;;;;;4.28;1.30;;;6.60;99.90;;;;;;1923974;73;21083;-75
2021/09/30 04:55:32;;;;;;;3.05;1.90;;;6.50;99.90;;;;;;1910256;73;21484;-76
2021/09/30 04:57:58;;;;;;;3.15;1.72;;;6.60;99.90;;;;;;1905932;73;21587;-76
2021/09/30 05:00:25;;;;;;;4.12;1.37;;;6.60;99.90;;;;;;1918339;73;21499;-75
2021/09/30 05:02:51;;;;;;;4.72;2.00;;;6.60;99.90;;;;;;1921052;73;21153;-74
2021/09/30 05:05:17;;;;;;;3.47;0.90;;;6.60;99.90;;;;;;1909674;73;21165;-74
2021/09/30 05:07:44;;;;;;;2.50;1.10;;;6.60;99.90;;;;;;1917611;73;21185;-75
2021/09/30 05:10:12;;;;;;;2.70;1.10;;;6.50;99.90;;;;;;1918175;73;21153;-74
2021/09/30 05:12:38;;;;;;;3.98;1.12;;;6.60;99.90;;;;;;1911361;72;21825;-77
2021/09/30 05:15:04;;;;;;;1.05;0.95;;;6.60;99.90;;;;;;1912805;73;21196;-75
2021/09/30 05:17:32;;;;;;;4.50;2.02;;;6.60;99.90;;;;;;1914028;73;21147;-75
2021/09/30 05:19:58;;;;;;;1.65;1.20;;;6.70;99.90;;;;;;1914595;73;21088;-75
2021/09/30 05:22:24;;;;;;;4.10;1.50;;;6.70;99.90;;;;;;1913673;74;21083;-76
2021/09/30 05:24:50;;;;;;;2.47;1.57;;;6.70;99.90;;;;;;1915244;73;21138;-73
2021/09/30 05:27:17;;;;;;;2.08;1.42;;;6.60;99.90;;;;;;1915451;73;21153;-75
2021/09/30 05:29:43;;;;;;;2.60;1.20;;;6.60;99.90;;;;;;1915282;73;21142;-76
2021/09/30 05:32:09;;;;;;;3.00;1.10;;;6.60;99.90;;;;;;1919713;73;21083;-75
2021/09/30 05:34:35;;;;;;;3.52;1.32;;;6.60;99.90;;;;;;1913265;73;21084;-74
2021/09/30 05:37:01;;;;;;;2.02;1.50;;;6.60;99.90;;;;;;1920478;73;21075;-75
2021/09/30 05:39:27;;;;;;;3.95;1.70;;;6.50;99.90;;;;;;1904130;74;21154;-75
2021/09/30 05:41:54;;;;;;;2.55;1.47;;;6.60;99.90;;;;;;1916416;73;21079;-76
2021/09/30 05:44:23;;;;;;;8.35;2.15;;;6.50;99.90;;;;;;1915268;74;21095;-74
2021/09/30 05:46:53;;;;;;;2.37;1.70;;;6.50;99.90;;;;;;1917790;74;21530;-75
2021/09/30 05:49:16;;;;;;;3.08;1.70;;;6.50;99.90;;;;;;1902172;74;21200;-74
2021/09/30 05:51:42;;;;;;;1.92;1.35;;;6.50;99.90;;;;;;1916671;74;21123;-75
2021/09/30 05:54:08;;;;;;;4.55;1.80;;;6.50;99.90;;;;;;1916172;74;21287;-74
2021/09/30 05:56:34;;;;;;;3.00;2.00;;;6.50;99.90;;;;;;1914328;74;21484;-76
2021/09/30 05:59:01;;;;;;;4.60;1.85;;;6.50;99.90;;;;;;1918943;74;21557;-73
2021/09/30 06:05:47;;;;;;;7.47;3.02;;;6.50;99.90;;;;;;1918387;74;21068;-76
2021/09/30 06:12:15;;;;;;;6.28;4.00;;;6.70;99.90;;;;;;1919409;73;21072;-75
2021/09/30 06:14:42;;;;;;;7.03;3.20;;;6.70;99.90;;;;;;1905892;73;21120;-75
2021/09/30 06:17:07;;;;;;;10.03;3.72;;;6.80;99.90;;;;;;1916707;74;21179;-74
2021/09/30 06:19:33;;;;;;;7.85;3.27;;;6.80;99.90;;;;;;1916189;74;21054;-73
2021/09/30 06:22:04;;;;;;;4.25;2.33;;;6.90;99.90;;;;;;1918166;74;21080;-73
2021/09/30 06:24:27;;;;;;;4.42;2.37;;;6.90;99.90;;;;;;1911602;73;21313;-74
2021/09/30 06:26:53;;;;;;;5.60;1.57;;;6.90;99.90;;;;;;1911799;73;21256;-73
2021/09/30 06:29:19;;;;;;;5.28;2.12;;;6.90;99.90;;;;;;1916351;73;21083;-72
2021/09/30 06:31:45;;;;;;;3.33;1.70;;;7.10;99.90;;;;;;1922665;73;21084;-72
2021/09/30 06:34:11;;;;;;;2.98;1.72;;;7.10;99.90;;;;;;1913378;73;21079;-72
2021/09/30 06:36:38;;;;;;;9.93;1.90;;;7.20;99.90;;;;;;1908067;73;21157;-73
2021/09/30 06:39:04;;;;;;;7.25;1.57;;;7.20;99.90;;;;;;1915160;73;21162;-72
2021/09/30 06:41:30;;;;;;;3.22;1.40;;;7.30;99.90;;;;;;1911348;74;21095;-74
2021/09/30 06:43:56;;;;;;;3.95;1.62;;;7.40;99.90;;;;;;1918376;73;21453;-72
2021/09/30 06:46:23;;;;;;;4.58;1.72;;;7.40;99.90;;;;;;1917156;73;21496;-73
2021/09/30 06:48:49;;;;;;;8.23;1.82;;;7.50;99.90;;;;;;1913636;73;21148;-73
2021/09/30 06:51:15;;;;;;;3.12;2.05;;;7.50;99.90;;;;;;1920514;73;21153;-73
2021/09/30 06:53:41;;;;;;;4.15;1.90;;;7.60;99.90;;;;;;1916482;73;21076;-73
2021/09/30 06:56:18;;;;;;;12.07;2.30;;;7.80;99.90;;;;;;1905948;73;21145;-73
2021/09/30 06:58:43;;;;;;;7.08;2.10;;;7.80;99.90;;;;;;1917181;73;21101;-75
2021/09/30 07:01:09;;;;;;;7.50;2.25;;;7.90;99.90;;;;;;1911528;73;21180;-76
2021/09/30 07:03:35;;;;;;;15.65;2.40;;;8.00;99.90;;;;;;1914363;72;21068;-75
2021/09/30 07:06:01;;;;;;;4.35;2.10;;;8.10;99.90;;;;;;1921085;73;21079;-76
2021/09/30 07:08:28;;;;;;;5.53;1.95;;;8.20;99.90;;;;;;1906438;73;21075;-75
2021/09/30 07:10:54;;;;;;;10.45;2.77;;;8.30;99.90;;;;;;1910509;73;21053;-76
2021/09/30 07:13:21;;;;;;;9.55;2.65;;;8.40;99.90;;;;;;1909449;73;21079;-76
2021/09/30 07:15:47;;;;;;;12.28;2.77;;;8.50;99.90;;;;;;1919362;73;21091;-76
2021/09/30 07:18:14;;;;;;;5.37;2.15;;;8.70;99.90;;;;;;1915768;73;21083;-76
2021/09/30 07:20:40;;;;;;;5.12;1.60;;;8.80;99.90;;;;;;1918134;73;21080;-75
2021/09/30 07:23:06;;;;;;;5.95;2.17;;;8.80;99.90;;;;;;1896412;73;21053;-76
2021/09/30 07:25:32;;;;;;;3.70;1.40;;;8.90;99.90;;;;;;1916726;73;21144;-75
2021/09/30 07:27:58;;;;;;;9.73;2.22;;;9.00;99.90;;;;;;1920856;73;21079;-75
2021/09/30 07:30:24;;;;;;;4.50;1.77;;;9.10;99.90;;;;;;1918643;74;21213;-75
2021/09/30 07:32:50;;;;;;;7.83;1.55;;;9.20;99.90;;;;;;1915868;73;21095;-76
2021/09/30 07:35:16;;;;;;;4.62;1.77;;;9.20;99.90;;;;;;1914453;73;21048;-75
2021/09/30 07:37:45;;;;;;;5.58;1.87;;;9.30;99.90;;;;;;1912746;74;21496;-81
2021/09/30 07:40:10;;;;;;;4.53;1.50;;;9.50;99.90;;;;;;1912794;73;21295;-76
2021/09/30 07:42:36;;;;;;;4.15;1.60;;;9.60;99.90;;;;;;1916074;73;21088;-75
2021/09/30 07:45:03;;;;;;;5.65;1.35;;;9.80;99.90;;;;;;1919777;73;21088;-75
2021/09/30 07:47:29;;;;;;;3.20;1.42;;;9.80;99.90;;;;;;1906793;74;21088;-75
2021/09/30 07:49:55;;;;;;;5.28;1.62;;;9.80;99.90;;;;;;1918538;73;21150;-75
2021/09/30 07:52:21;;;;;;;6.53;1.37;;;9.80;99.90;;;;;;1912490;74;21488;-75
2021/09/30 07:54:47;;;;;;;8.15;1.27;;;10.00;99.90;;;;;;1908785;73;21495;-75
2021/09/30 07:57:13;;;;;;;2.62;1.10;;;10.30;99.90;;;;;;1917351;74;21551;-75
2021/09/30 07:59:41;;;;;;;4.87;1.40;;;10.70;99.90;;;;;;1918974;74;21473;-75
2021/09/30 08:02:07;;;;;;;7.35;1.22;;;11.00;99.90;;;;;;1915819;74;21079;-75
2021/09/30 08:04:33;;;;;;;1.20;0.93;;;11.20;99.90;;;;;;1919216;73;21205;-75
2021/09/30 08:07:01;;;;;;;4.85;1.22;;;11.30;99.90;;;;;;1914762;74;21150;-76
2021/09/30 08:09:27;;;;;;;2.15;0.90;;;11.70;99.90;;;;;;1915888;74;21092;-75
2021/09/30 08:11:53;;;;;;;11.55;1.22;;;12.10;99.90;;;;;;1912232;73;21089;-75
2021/09/30 08:14:19;;;;;;;5.08;1.57;;;12.20;99.90;;;;;;1917608;73;21076;-75
2021/09/30 08:16:47;;;;;;;3.80;1.22;;;12.10;99.90;;;;;;1914169;74;21198;-75
2021/09/30 08:19:14;;;;;;;3.00;1.00;;;11.90;99.90;;;;;;1918459;74;21186;-75
2021/09/30 08:21:44;;;;;;;1.87;1.07;;;12.30;99.90;;;;;;1915115;73;21049;-75
2021/09/30 08:24:08;;;;;;;3.33;0.88;;;12.60;99.90;;;;;;1919098;74;21132;-75
2021/09/30 08:26:34;;;;;;;2.80;1.30;;;12.90;99.90;;;;;;1914951;74;21150;-75
2021/09/30 08:29:00;;;;;;;4.40;1.50;;;13.30;99.90;;;;;;1913245;73;21085;-74
2021/09/30 08:31:26;;;;;;;3.27;1.00;;;13.30;99.90;;;;;;1915912;73;21045;-75
2021/09/30 08:33:55;;;;;;;2.20;0.85;;;13.50;99.90;;;;;;1912655;73;21089;-75
2021/09/30 08:36:20;;;;;;;2.92;0.80;;;14.00;99.90;;;;;;1913512;74;21076;-75
2021/09/30 08:38:46;;;;;;;7.12;0.93;;;14.20;99.90;;;;;;1910105;74;21146;-75
2021/09/30 08:41:13;;;;;;;3.98;1.10;;;14.40;99.90;;;;;;1917332;74;21037;-75
2021/09/30 08:43:39;;;;;;;3.92;1.00;;;14.50;99.90;;;;;;1918742;74;21146;-75
2021/09/30 08:46:06;;;;;;;2.87;1.10;;;14.40;99.90;;;;;;1916414;74;21446;-75
2021/09/30 08:48:32;;;;;;;5.30;1.10;;;14.90;99.90;;;;;;1916708;74;21142;-75
2021/09/30 08:50:58;;;;;;;2.35;0.78;;;15.30;99.90;;;;;;1918194;74;21166;-75
2021/09/30 08:53:25;;;;;;;1.30;1.07;;;15.40;99.90;;;;;;1920363;73;21053;-76
2021/09/30 08:55:51;;;;;;;1.57;0.93;;;15.40;99.90;;;;;;1916864;73;21080;-75
2021/09/30 08:58:17;;;;;;;1.95;0.70;;;15.70;99.90;;;;;;1916481;73;21093;-75
2021/09/30 09:00:43;;;;;;;2.72;1.00;;;15.90;99.90;;;;;;1916346;74;21135;-74
2021/09/30 09:03:09;;;;;;;4.90;1.22;;;15.90;99.90;;;;;;1911798;74;21060;-75
2021/09/30 09:05:36;;;;;;;1.70;0.80;;;15.40;99.90;;;;;;1917545;73;21084;-75
2021/09/30 09:08:02;;;;;;;5.30;1.20;;;14.60;99.90;;;;;;1948072;72;21064;-75
2021/09/30 09:10:28;;;;;;;2.65;0.98;;;14.50;99.90;;;;;;1950710;72;21142;-76
2021/09/30 09:12:54;;;;;;;3.85;0.90;;;14.40;99.90;;;;;;1939509;72;21086;-75
2021/09/30 09:15:20;;;;;;;1.35;0.57;;;14.50;99.90;;;;;;1896204;73;21260;-75
2021/09/30 09:17:46;;;;;;;2.47;0.70;;;14.30;99.90;;;;;;1907456;74;21084;-74
2021/09/30 09:20:13;;;;;;;3.70;0.85;;;14.40;99.90;;;;;;1950262;72;21071;-75
2021/09/30 09:22:39;;;;;;;1.87;0.70;;;14.50;99.90;;;;;;1955064;72;21080;-75
2021/09/30 09:25:06;;;;;;;5.40;1.05;;;14.40;99.90;;;;;;1958028;72;21076;-75
2021/09/30 09:27:32;;;;;;;11.63;0.82;;;14.50;99.90;;;;;;1954423;72;21273;-75
2021/09/30 09:29:58;;;;;;;2.12;0.80;;;15.10;99.90;;;;;;1954845;72;21144;-75
2021/09/30 09:32:24;;;;;;;3.35;0.82;;;15.20;99.90;;;;;;1959639;72;21063;-75
2021/09/30 09:34:51;;;;;;;1.45;0.65;;;15.10;99.90;;;;;;1954436;72;21041;-75
2021/09/30 09:37:18;;;;;;;3.20;0.50;;;15.20;99.90;;;;;;1930362;72;21597;-75
2021/09/30 09:39:45;;;;;;;4.47;0.80;;;15.00;99.90;;;;;;1902296;73;21091;-76
2021/09/30 09:42:14;;;;;;;2.17;0.70;;;15.10;99.90;;;;;;1910537;73;21080;-75
2021/09/30 09:44:38;;;;;;;2.50;0.68;;;15.70;99.90;;;;;;1904410;73;21146;-76
2021/09/30 09:47:05;;;;;;;1.45;0.68;;;16.60;99.90;;;;;;1950516;72;21094;-76
2021/09/30 09:49:31;;;;;;;5.03;0.80;;;16.50;99.90;;;;;;1933162;72;21070;-75
2021/09/30 09:51:57;;;;;;;3.00;0.93;;;16.30;99.90;;;;;;1882711;73;21137;-77
2021/09/30 09:54:23;;;;;;;5.47;0.80;;;16.40;99.90;;;;;;1898279;74;21129;-76
2021/09/30 09:56:50;;;;;;;2.20;0.60;;;16.40;99.90;;;;;;1906241;73;21146;-76
2021/09/30 09:59:16;;;;;;;5.42;0.62;;;16.50;99.90;;;;;;1910844;73;21280;-76
2021/09/30 10:01:43;;;;;;;7.15;0.70;;;16.30;99.90;;;;;;1914072;74;21213;-76
2021/09/30 10:04:09;;;;;;;2.42;0.80;;;16.20;99.90;;;;;;1948142;72;21130;-76
2021/09/30 10:06:35;;;;;;;3.08;0.82;;;16.40;99.90;;;;;;1949220;72;21044;-76
2021/09/30 10:09:01;;;;;;;2.27;0.78;;;16.40;99.90;;;;;;1899529;73;21078;-76
2021/09/30 10:11:27;;;;;;;1.45;0.30;;;17.30;99.90;;;;;;1900308;74;21080;-76
2021/09/30 10:13:53;;;;;;;4.83;0.70;;;17.70;99.90;;;;;;1954711;72;21583;-76
2021/09/30 10:16:24;;;;;;;1.82;0.72;;;17.90;99.90;;;;;;1936406;72;21494;-77
2021/09/30 10:18:47;;;;;;;2.20;0.70;;;18.20;99.90;;;;;;1883722;74;21058;-77
2021/09/30 10:21:13;;;;;;;5.12;0.80;;;18.60;99.90;;;;;;1941593;72;21500;-76
2021/09/30 10:23:40;;;;;;;1.72;0.70;;;18.40;99.90;;;;;;1946291;72;21498;-75
2021/09/30 10:26:06;;;;;;;1.52;0.72;;;18.50;99.90;;;;;;1902580;73;21592;-76
2021/09/30 10:28:32;;;;;;;3.72;0.70;;;18.30;99.90;;;;;;1903299;73;21862;-77
2021/09/30 10:30:58;;;;;;;2.47;0.72;;;17.60;99.90;;;;;;1904315;74;21167;-77
2021/09/30 10:33:24;;;;;;;1.30;0.60;;;17.90;99.90;;;;;;1940474;72;21146;-75
2021/09/30 10:35:55;;;;;;;1.98;0.72;;;17.40;99.90;;;;;;1933882;72;21078;-75
2021/09/30 10:38:18;;;;;;;5.10;0.70;;;16.50;99.90;;;;;;1906340;74;21474;-75
2021/09/30 10:40:44;;;;;;;3.95;0.60;;;16.20;99.90;;;;;;1945064;72;21482;-75
2021/09/30 10:43:10;;;;;;;2.37;0.70;;;15.60;99.90;;;;;;1908476;73;21571;-75
2021/09/30 10:45:36;;;;;;;8.20;0.42;;;15.60;99.90;;;;;;1938154;72;21457;-75
2021/09/30 10:48:02;;;;;;;1.07;0.50;;;16.10;99.90;;;;;;1912883;73;21540;-75
2021/09/30 10:50:29;;;;;;;3.22;0.60;;;16.80;99.90;;;;;;1919053;74;21507;-75
2021/09/30 10:52:55;;;;;;;1.95;0.60;;;16.50;99.90;;;;;;1901538;73;21517;-75
2021/09/30 10:55:21;;;;;;;3.52;0.53;;;16.90;99.90;;;;;;1903463;73;21088;-75
2021/09/30 10:57:47;;;;;;;1.92;0.60;;;17.90;99.90;;;;;;1911203;73;21040;-76
2021/09/30 11:00:13;;;;;;;2.00;0.42;;;18.30;99.90;;;;;;1912437;73;21135;-74
2021/09/30 11:02:39;;;;;;;2.77;0.65;;;18.40;99.90;;;;;;1912837;73;21150;-74
2021/09/30 11:05:05;;;;;;;4.20;0.70;;;17.60;99.90;;;;;;1905460;73;21088;-74
2021/09/30 11:07:32;;;;;;;2.33;0.40;;;17.30;99.90;;;;;;1922500;73;21085;-75
2021/09/30 11:09:58;;;;;;;2.67;0.60;;;17.60;99.90;;;;;;1907695;73;21058;-75
2021/09/30 11:12:24;;;;;;;0.93;0.53;;;18.10;99.90;;;;;;1916322;73;21198;-75
2021/09/30 11:14:52;;;;;;;1.40;0.65;;;18.10;99.90;;;;;;1918824;73;21157;-75
2021/09/30 11:17:18;;;;;;;0.50;0.40;;;18.90;99.90;;;;;;1915159;73;21080;-75
2021/09/30 11:19:46;;;;;;;0.95;0.37;;;19.40;98.80;;;;;;1908189;73;21199;-76
2021/09/30 11:22:12;;;;;;;1.87;0.47;;;19.70;97.80;;;;;;1917920;73;21068;-77
2021/09/30 11:24:38;;;;;;;1.10;0.45;;;18.90;99.20;;;;;;1915543;73;21516;-76
2021/09/30 11:27:04;;;;;;;3.00;0.70;;;18.80;99.30;;;;;;1923670;73;21511;-74
2021/09/30 11:29:30;;;;;;;1.80;0.70;;;19.30;97.90;;;;;;1921911;73;21594;-74
2021/09/30 11:31:57;;;;;;;2.85;0.60;;;19.30;97.00;;;;;;1924195;73;21578;-74
2021/09/30 11:34:23;;;;;;;1.70;0.40;;;19.00;96.40;;;;;;1899812;73;21517;-76
2021/09/30 11:36:49;;;;;;;0.90;0.40;;;19.50;96.80;;;;;;1910296;73;21571;-74
2021/09/30 11:39:15;;;;;;;1.77;0.50;;;18.90;95.70;;;;;;1905125;73;21512;-75
2021/09/30 11:41:41;;;;;;;7.30;0.45;;;18.60;96.70;;;;;;1919721;73;21061;-75
2021/09/30 11:44:07;;;;;;;1.45;0.40;;;18.80;97.20;;;;;;1905443;73;21202;-76
2021/09/30 11:46:33;;;;;;;1.82;0.40;;;18.60;96.20;;;;;;1904985;73;21154;-75
2021/09/30 11:48:59;;;;;;;1.35;0.47;;;18.30;96.10;;;;;;1915941;73;21078;-75
2021/09/30 11:51:26;;;;;;;1.70;0.60;;;18.80;95.40;;;;;;1925252;74;21051;-75
2021/09/30 11:53:52;;;;;;;1.40;0.53;;;19.20;94.30;;;;;;1955480;72;21140;-76
2021/09/30 11:56:18;;;;;;;5.97;0.50;;;19.90;92.60;;;;;;1888068;73;21077;-75
2021/09/30 11:58:44;;;;;;;1.12;0.40;;;20.00;93.50;;;;;;1944144;72;21212;-76
2021/09/30 12:01:10;;;;;;;0.53;0.25;;;20.00;92.30;;;;;;1895105;74;21061;-75
2021/09/30 12:03:36;;;;;;;2.60;0.70;;;19.80;91.80;;;;;;1900895;73;21081;-76
2021/09/30 12:06:02;;;;;;;1.85;0.60;;;18.80;92.90;;;;;;1913823;73;21188;-76
2021/09/30 12:08:28;;;;;;;2.60;0.60;;;18.40;92.90;;;;;;1908353;73;21284;-76
2021/09/30 12:10:55;;;;;;;0.35;0.23;;;18.30;91.40;;;;;;1899488;74;21094;-76
2021/09/30 12:13:21;;;;;;;1.37;0.35;;;18.30;91.00;;;;;;1951173;72;21069;-74
2021/09/30 12:15:47;;;;;;;2.70;0.35;;;18.40;90.60;;;;;;1955852;72;21010;-73
2021/09/30 12:18:14;;;;;;;1.12;0.50;;;18.90;86.80;;;;;;1947575;72;21079;-73
2021/09/30 12:20:40;;;;;;;3.02;0.68;;;18.60;84.30;;;;;;1893225;74;21093;-75
2021/09/30 12:23:06;;;;;;;1.45;0.42;;;18.90;86.90;;;;;;1894780;74;21163;-76
2021/09/30 12:25:32;;;;;;;3.80;0.60;;;19.20;85.20;;;;;;1956415;72;21084;-76
2021/09/30 12:27:59;;;;;;;1.05;0.47;;;19.10;85.90;;;;;;1938376;71;21491;-74
2021/09/30 12:30:25;;;;;;;2.42;0.40;;;19.70;85.10;;;;;;1903918;73;21082;-74
2021/09/30 12:32:52;;;;;;;0.45;0.30;;;19.50;85.80;;;;;;1913283;73;21097;-75
2021/09/30 12:35:18;;;;;;;1.25;0.50;;;20.10;87.00;;;;;;1951202;72;21106;-74
2021/09/30 12:37:44;;;;;;;3.77;0.50;;;20.50;82.60;;;;;;1936442;72;21123;-77
2021/09/30 12:40:10;;;;;;;0.80;0.35;;;21.10;81.30;;;;;;1903613;72;21413;-74
2021/09/30 12:42:36;;;;;;;0.80;0.40;;;21.80;79.90;;;;;;1946116;71;21204;-76
2021/09/30 12:45:02;;;;;;;11.12;0.60;;;21.80;75.70;;;;;;1913505;73;21048;-77
2021/09/30 12:47:28;;;;;;;2.62;0.50;;;20.80;77.30;;;;;;1913779;74;21088;-76
2021/09/30 12:49:55;;;;;;;3.95;0.62;;;20.80;79.20;;;;;;1957052;72;21067;-77
2021/09/30 12:52:21;;;;;;;1.75;0.50;;;21.20;79.70;;;;;;1957151;72;21141;-76
2021/09/30 12:54:47;;;;;;;0.70;0.50;;;21.00;80.50;;;;;;1958231;72;21059;-78
2021/09/30 12:57:13;;;;;;;0.95;0.37;;;21.10;79.10;;;;;;1957942;72;21219;-74
2021/09/30 12:59:39;;;;;;;0.98;0.30;;;20.60;80.20;;;;;;1950414;72;21166;-76
2021/09/30 13:02:06;;;;;;;2.83;0.65;;;21.30;78.50;;;;;;1955613;72;21072;-75
2021/09/30 13:04:33;;;;;;;1.10;0.50;;;21.70;76.00;;;;;;1959410;72;21557;-77
2021/09/30 13:07:03;;;;;;;1.00;0.33;;;20.90;80.00;;;;;;1958685;72;21125;-76
2021/09/30 13:09:29;;;;;;;1.30;0.60;;;21.80;78.20;;;;;;1955178;72;21156;-76
2021/09/30 13:11:58;;;;;;;2.08;0.50;;;22.00;76.00;;;;;;1936034;72;21056;-76
2021/09/30 13:14:24;;;;;;;0.57;0.35;;;22.00;75.20;;;;;;1896509;74;21139;-75
2021/09/30 13:19:36;;;;;;;4.80;0.70;;;21.20;78.10;;;;;;1939564;72;21122;-75
2021/09/30 13:22:02;;;;;;;1.22;0.50;;;21.70;78.60;;;;;;1932913;73;21090;-76
2021/09/30 13:24:28;;;;;;;0.85;0.37;;;21.40;76.20;;;;;;1946443;72;21076;-76
2021/09/30 13:26:54;;;;;;;1.30;0.55;;;21.70;79.30;;;;;;1953943;72;21139;-76
2021/09/30 13:29:20;;;;;;;2.05;0.85;;;22.40;75.90;;;;;;1885935;75;21085;-76
2021/09/30 13:31:46;;;;;;;1.45;0.47;;;22.00;74.60;;;;;;1942684;73;21068;-75
2021/09/30 13:34:13;;;;;;;2.15;0.57;;;22.10;75.70;;;;;;1952631;73;21033;-75
2021/09/30 13:36:39;;;;;;;3.27;0.60;;;21.60;74.30;;;;;;1945741;73;21072;-76
2021/09/30 13:39:05;;;;;;;4.42;0.42;;;20.00;79.00;;;;;;1943318;72;21068;-76
2021/09/30 13:41:31;;;;;;;2.05;0.30;;;21.00;77.70;;;;;;1955576;72;21028;-76
2021/09/30 13:43:57;;;;;;;2.72;0.70;;;20.90;78.90;;;;;;1955758;72;21076;-76
2021/09/30 13:46:23;;;;;;;1.35;0.50;;;21.80;79.30;;;;;;1949895;72;21065;-76
2021/09/30 13:48:49;;;;;;;1.75;0.53;;;22.10;76.30;;;;;;1898556;74;21199;-76
2021/09/30 13:51:17;;;;;;;4.37;0.53;;;21.80;77.20;;;;;;1944739;73;21058;-76
2021/09/30 13:53:43;;;;;;;1.10;0.65;;;22.00;76.60;;;;;;1944217;73;21067;-76
2021/09/30 13:56:09;;;;;;;1.27;0.50;;;22.10;74.70;;;;;;1950711;73;21054;-76
2021/09/30 13:58:35;;;;;;;0.88;0.50;;;22.40;75.30;;;;;;1952853;72;21028;-76
2021/09/30 14:01:01;;;;;;;1.62;0.50;;;22.20;72.20;;;;;;1947946;72;21080;-76
2021/09/30 14:03:27;;;;;;;0.28;0.28;;;22.60;72.00;;;;;;1949451;73;21076;-76
2021/09/30 14:05:54;;;;;;;0.95;0.40;;;23.10;72.70;;;;;;1949238;73;21153;-75
2021/09/30 14:08:20;;;;;;;1.42;0.57;;;23.60;70.40;;;;;;1946510;73;21020;-76
2021/09/30 14:10:46;;;;;;;2.22;0.40;;;22.90;71.20;;;;;;1953545;73;21075;-75
2021/09/30 14:13:16;;;;;;;1.15;0.40;;;23.10;70.10;;;;;;1950704;72;21059;-75
2021/09/30 14:15:40;;;;;;;1.27;0.47;;;21.50;74.80;;;;;;1954631;72;21493;-75
2021/09/30 14:18:06;;;;;;;0.70;0.47;;;21.80;75.00;;;;;;1953061;73;21496;-75
2021/09/30 14:20:32;;;;;;;4.42;0.35;;;22.50;71.50;;;;;;1952634;72;21562;-76
2021/09/30 14:22:58;;;;;;;2.20;0.50;;;21.80;73.40;;;;;;1885710;74;21591;-76
2021/09/30 14:25:25;;;;;;;0.28;0.25;;;22.10;73.90;;;;;;1945640;72;21468;-76
2021/09/30 14:27:51;;;;;;;0.40;0.40;;;21.80;73.10;;;;;;1950493;72;21441;-76
2021/09/30 14:30:17;;;;;;;1.07;0.60;;;21.30;74.40;;;;;;1947704;73;21129;-75
2021/09/30 14:32:43;;;;;;;0.62;0.33;;;21.00;73.60;;;;;;1945445;73;21088;-75
2021/09/30 14:35:09;;;;;;;1.32;0.35;;;20.90;72.40;;;;;;1949374;72;21150;-75
2021/09/30 14:37:35;;;;;;;0.72;0.25;;;20.70;72.00;;;;;;1956149;72;21053;-76
2021/09/30 14:40:01;;;;;;;0.50;0.35;;;20.90;73.00;;;;;;1948333;72;21129;-75
2021/09/30 14:42:27;;;;;;;2.50;0.42;;;21.60;70.70;;;;;;1952609;72;22599;-75
2021/09/30 14:44:57;;;;;;;2.90;0.70;;;21.80;68.30;;;;;;1955232;73;21181;-75
2021/09/30 14:47:21;;;;;;;1.30;0.33;;;21.50;69.20;;;;;;1948443;73;21482;-75
2021/09/30 14:49:47;;;;;;;2.10;0.50;;;21.70;69.80;;;;;;1893388;73;21477;-75
2021/09/30 14:52:14;;;;;;;1.17;0.35;;;22.30;70.60;;;;;;1910511;73;21577;-75
2021/09/30 14:54:40;;;;;;;1.60;0.42;;;23.00;67.50;;;;;;1907677;73;21169;-75
2021/09/30 14:57:06;;;;;;;1.10;0.47;;;23.20;65.70;;;;;;1928674;72;21062;-75
2021/09/30 14:59:32;;;;;;;1.52;0.50;;;22.80;65.30;;;;;;1930414;73;21048;-75
2021/09/30 15:01:58;;;;;;;0.90;0.45;;;22.60;64.30;;;;;;1913991;73;21147;-75
2021/09/30 15:04:24;;;;;;;0.47;0.37;;;22.50;66.30;;;;;;1910261;73;21156;-75
2021/09/30 15:06:50;;;;;;;2.70;0.68;;;22.70;67.40;;;;;;1921557;73;21087;-75
2021/09/30 15:09:16;;;;;;;2.85;0.50;;;23.10;65.50;;;;;;1952014;72;21033;-75
2021/09/30 15:11:43;;;;;;;1.35;0.42;;;23.00;64.10;;;;;;1944485;72;21124;-76
2021/09/30 15:14:09;;;;;;;1.50;0.50;;;22.30;66.70;;;;;;1897714;74;21076;-75
2021/09/30 15:16:38;;;;;;;1.37;0.40;;;22.20;67.50;;;;;;1953682;72;21489;-75
2021/09/30 15:19:08;;;;;;;2.00;0.60;;;22.30;67.60;;;;;;1949879;72;21084;-75
2021/09/30 15:21:31;;;;;;;1.00;0.65;;;21.70;65.20;;;;;;1897259;74;21065;-76
2021/09/30 15:23:57;;;;;;;3.60;0.53;;;21.40;67.20;;;;;;1955326;72;21108;-75
2021/09/30 15:26:24;;;;;;;2.17;0.50;;;21.90;67.30;;;;;;1950406;72;21533;-75
2021/09/30 15:28:51;;;;;;;6.53;0.75;;;22.20;67.70;;;;;;1904343;74;21139;-75